createdAt,value
2023-03-11T00:01:00.199Z,15.50
2023-03-11T00:02:01.836Z,15.50
2023-03-11T00:03:05.660Z,15.23
2023-03-11T00:04:07.841Z,15.65
2023-03-11T00:05:12.913Z,15.63
2023-03-11T00:06:14.585Z,15.65
2023-03-11T00:07:17.272Z,15.65
2023-03-11T00:08:21.891Z,16.12
2023-03-11T00:09:23.454Z,16.20
2023-03-11T00:10:30.269Z,15.82
2023-03-11T00:11:32.146Z,16.20
2023-03-11T00:12:33.726Z,16.98
2023-03-11T00:13:35.528Z,16.82
2023-03-11T00:14:37.097Z,16.72
2023-03-11T00:15:39.754Z,17.57
2023-03-11T00:16:41.405Z,17.62
2023-03-11T00:17:43.339Z,17.25
2023-03-11T00:18:44.971Z,15.83
2023-03-11T00:19:47.058Z,17.32
2023-03-11T00:20:48.694Z,16.48
2023-03-11T00:21:50.345Z,16.05
2023-03-11T00:22:52.746Z,16.97
2023-03-11T00:23:54.433Z,16.23
2023-03-11T00:24:56.018Z,17.10
2023-03-11T00:25:57.616Z,17.15
2023-03-11T00:26:59.201Z,17.30
2023-03-11T00:28:00.984Z,16.48
2023-03-11T00:29:02.764Z,16.02
2023-03-11T00:30:05.296Z,16.18
2023-03-11T00:31:06.935Z,16.00
2023-03-11T00:32:08.538Z,15.65
2023-03-11T00:33:15.543Z,15.42
2023-03-11T00:34:17.474Z,14.80
2023-03-11T00:35:24.356Z,13.63
2023-03-11T00:36:31.781Z,13.93
2023-03-11T00:37:33.436Z,13.82
2023-03-11T00:38:35.248Z,13.53
2023-03-11T00:39:36.861Z,13.52
2023-03-11T00:40:39.696Z,13.85
2023-03-11T00:41:41.272Z,13.70
2023-03-11T00:42:42.842Z,14.28
2023-03-11T00:43:44.395Z,14.02
2023-03-11T00:44:46.013Z,14.48
2023-03-11T00:45:47.733Z,14.60
2023-03-11T00:46:49.484Z,14.65
2023-03-11T00:47:51.955Z,14.67
2023-03-11T00:48:53.836Z,14.68
2023-03-11T00:49:55.459Z,14.40
2023-03-11T00:50:57.279Z,14.65
2023-03-11T00:51:58.881Z,14.72
2023-03-11T00:53:01.482Z,14.53
2023-03-11T00:54:03.286Z,14.83
2023-03-11T00:55:06.087Z,14.90
2023-03-11T00:56:09.619Z,15.02
2023-03-11T00:57:11.294Z,14.60
2023-03-11T00:58:13.487Z,14.93
2023-03-11T00:59:15.122Z,15.43
2023-03-11T01:00:18.930Z,15.30
2023-03-11T01:01:20.724Z,15.27
2023-03-11T01:02:23.315Z,15.47
2023-03-11T01:03:24.908Z,15.15
2023-03-11T01:04:26.957Z,15.80
2023-03-11T01:05:31.301Z,15.27
2023-03-11T01:06:44.762Z,14.33
2023-03-11T01:07:47.293Z,14.33
2023-03-11T01:08:48.899Z,14.33
2023-03-11T01:09:50.578Z,13.68
2023-03-11T01:10:52.144Z,13.70
2023-03-11T01:11:53.733Z,13.85
2023-03-11T01:12:55.364Z,13.75
2023-03-11T01:13:57.146Z,13.03
2023-03-11T01:14:59.023Z,12.60
2023-03-11T01:16:01.026Z,13.23
2023-03-11T01:17:02.639Z,13.43
2023-03-11T01:18:05.891Z,13.37
2023-03-11T01:19:07.530Z,12.42
2023-03-11T01:20:09.869Z,11.77
2023-03-11T01:21:11.468Z,11.78
2023-03-11T01:22:13.097Z,10.30
2023-03-11T01:23:19.624Z,10.17
2023-03-11T01:24:21.201Z,10.60
2023-03-11T01:25:24.309Z,10.65
2023-03-11T01:26:26.035Z,10.40
2023-03-11T01:27:27.638Z,9.62
2023-03-11T01:28:29.226Z,9.62
2023-03-11T01:29:30.778Z,9.90
2023-03-11T01:30:32.574Z,10.10
2023-03-11T01:31:34.137Z,9.68
2023-03-11T01:32:35.892Z,9.47
2023-03-11T01:33:37.592Z,9.28
2023-03-11T01:34:39.198Z,9.43
2023-03-11T01:35:41.139Z,9.52
2023-03-11T01:36:42.842Z,9.52
2023-03-11T01:37:44.529Z,9.50
2023-03-11T01:38:46.141Z,9.22
2023-03-11T01:39:47.851Z,9.22
2023-03-11T01:40:51.426Z,9.45
2023-03-11T01:41:53.184Z,9.12
2023-03-11T01:42:55.008Z,9.10
2023-03-11T01:43:57.105Z,8.32
2023-03-11T01:44:58.768Z,8.50
2023-03-11T01:46:00.426Z,8.85
2023-03-11T01:47:02.047Z,8.83
2023-03-11T01:48:03.729Z,7.97
2023-03-11T01:49:11.478Z,8.65
2023-03-11T01:50:13.554Z,7.70
2023-03-11T01:51:20.734Z,8.50
2023-03-11T01:52:22.444Z,8.58
2023-03-11T01:53:25.239Z,7.72
2023-03-11T01:54:37.951Z,7.63
2023-03-11T01:55:39.977Z,7.45
2023-03-11T01:56:42.870Z,7.23
2023-03-11T01:57:47.759Z,7.42
2023-03-11T01:58:52.499Z,7.50
2023-03-11T01:59:58.420Z,7.25
2023-03-11T02:01:02.537Z,6.57
2023-03-11T02:02:17.387Z,6.22
2023-03-11T02:03:27.426Z,6.53
2023-03-11T02:04:29.415Z,6.63
2023-03-11T02:05:31.240Z,6.57
2023-03-11T02:06:33.511Z,6.55
2023-03-11T02:07:35.384Z,6.65
2023-03-11T02:08:37.350Z,6.18
2023-03-11T02:09:38.954Z,6.38
2023-03-11T02:10:42.562Z,6.47
2023-03-11T02:11:44.288Z,5.97
2023-03-11T02:12:48.822Z,6.27
2023-03-11T02:13:52.292Z,6.02
2023-03-11T02:14:54.043Z,5.97
2023-03-11T02:15:55.874Z,5.62
2023-03-11T02:16:59.719Z,5.63
2023-03-11T02:18:05.972Z,5.92
2023-03-11T02:19:36.739Z,6.47
2023-03-11T02:21:19.923Z,6.37
2023-03-11T02:22:21.703Z,5.58
2023-03-11T02:23:30.021Z,5.58
2023-03-11T02:24:43.883Z,5.93
2023-03-11T02:26:00.260Z,5.63
2023-03-11T02:27:06.790Z,5.87
2023-03-11T02:28:12.467Z,6.10
2023-03-11T02:29:14.870Z,5.62
2023-03-11T02:30:17.799Z,5.73
2023-03-11T02:31:20.815Z,5.43
2023-03-11T02:32:23.057Z,5.67
2023-03-11T02:33:29.774Z,5.80
2023-03-11T02:34:34.547Z,5.87
2023-03-11T02:35:36.480Z,5.18
2023-03-11T02:36:42.581Z,5.65
2023-03-11T02:37:49.252Z,5.58
2023-03-11T02:38:50.863Z,5.35
2023-03-11T02:39:55.269Z,5.68
2023-03-11T02:40:59.466Z,5.77
2023-03-11T02:42:07.167Z,5.53
2023-03-11T02:43:14.500Z,5.60
2023-03-11T02:44:16.496Z,5.58
2023-03-11T02:45:22.401Z,6.00
2023-03-11T02:46:24.126Z,5.75
2023-03-11T02:47:27.550Z,5.72
2023-03-11T02:48:30.827Z,5.67
2023-03-11T02:49:33.200Z,5.97
2023-03-11T02:50:35.539Z,5.90
2023-03-11T02:51:37.149Z,6.47
2023-03-11T02:52:39.308Z,5.92
2023-03-11T02:53:51.711Z,5.92
2023-03-11T02:54:53.272Z,6.42
2023-03-11T02:55:54.950Z,6.35
2023-03-11T02:56:56.529Z,6.48
2023-03-11T02:57:58.462Z,6.92
2023-03-11T02:59:00.104Z,6.65
2023-03-11T03:00:01.761Z,6.63
2023-03-11T03:01:03.548Z,6.10
2023-03-11T03:02:05.799Z,5.98
2023-03-11T03:03:07.500Z,5.77
2023-03-11T03:04:09.136Z,5.93
2023-03-11T03:05:12.531Z,5.68
2023-03-11T03:06:14.148Z,6.02
2023-03-11T03:07:15.778Z,6.33
2023-03-11T03:08:17.384Z,6.03
2023-03-11T03:09:19.018Z,6.52
2023-03-11T03:10:22.114Z,5.98
2023-03-11T03:11:23.719Z,5.78
2023-03-11T03:12:25.421Z,5.83
2023-03-11T03:13:27.576Z,5.57
2023-03-11T03:14:29.226Z,5.78
2023-03-11T03:15:30.821Z,5.37
2023-03-11T03:16:32.485Z,5.78
2023-03-11T03:17:34.448Z,5.57
2023-03-11T03:18:36.197Z,5.72
2023-03-11T03:19:37.825Z,5.32
2023-03-11T03:20:39.384Z,5.58
2023-03-11T03:21:40.949Z,5.25
2023-03-11T03:22:42.947Z,5.38
2023-03-11T03:23:44.718Z,5.35
2023-03-11T03:24:46.366Z,5.60
2023-03-11T03:25:47.990Z,5.12
2023-03-11T03:26:49.611Z,5.18
2023-03-11T03:27:51.204Z,5.22
2023-03-11T03:28:52.926Z,5.47
2023-03-11T03:29:54.537Z,5.38
2023-03-11T03:30:56.781Z,5.37
2023-03-11T03:31:58.548Z,5.57
2023-03-11T03:33:00.754Z,6.27
2023-03-11T03:34:02.443Z,6.72
2023-03-11T03:35:04.871Z,7.42
2023-03-11T03:36:11.634Z,6.68
2023-03-11T03:37:13.217Z,6.33
2023-03-11T03:38:14.893Z,5.32
2023-03-11T03:39:16.665Z,5.28
2023-03-11T03:40:18.560Z,4.83
2023-03-11T03:41:20.161Z,4.67
2023-03-11T03:42:22.372Z,4.42
2023-03-11T03:43:23.974Z,4.73
2023-03-11T03:44:25.702Z,4.35
2023-03-11T03:45:27.378Z,4.48
2023-03-11T03:46:29.079Z,3.97
2023-03-11T03:47:32.414Z,4.30
2023-03-11T03:48:35.073Z,3.83
2023-03-11T03:49:36.780Z,3.58
2023-03-11T03:50:39.968Z,3.43
2023-03-11T03:51:41.532Z,3.42
2023-03-11T03:52:43.175Z,3.27
2023-03-11T03:53:44.839Z,2.92
2023-03-11T03:54:46.903Z,2.60
2023-03-11T03:55:48.510Z,2.65
2023-03-11T03:56:50.110Z,2.45
2023-03-11T03:57:51.718Z,2.12
2023-03-11T03:58:53.836Z,2.17
2023-03-11T03:59:55.572Z,2.52
2023-03-11T04:00:58.362Z,2.23
2023-03-11T04:02:00.023Z,2.57
2023-03-11T04:03:01.640Z,2.03
2023-03-11T04:04:03.305Z,2.05
2023-03-11T04:05:05.437Z,1.88
2023-03-11T04:06:22.277Z,2.02
2023-03-11T04:07:23.909Z,2.10
2023-03-11T04:08:25.533Z,2.00
2023-03-11T04:09:27.166Z,2.20
2023-03-11T04:10:28.867Z,1.73
2023-03-11T04:11:32.187Z,1.78
2023-03-11T04:12:33.756Z,1.85
2023-03-11T04:13:35.585Z,1.75
2023-03-11T04:14:37.188Z,1.93
2023-03-11T04:15:39.274Z,2.02
2023-03-11T04:16:40.988Z,1.82
2023-03-11T04:17:42.577Z,1.73
2023-03-11T04:18:44.320Z,1.80
2023-03-11T04:19:45.938Z,1.97
2023-03-11T04:20:47.539Z,1.77
2023-03-11T04:21:49.207Z,1.77
2023-03-11T04:22:50.852Z,1.65
2023-03-11T04:23:52.528Z,1.47
2023-03-11T04:24:54.082Z,1.60
2023-03-11T04:25:55.785Z,1.67
2023-03-11T04:26:57.397Z,1.65
2023-03-11T04:27:58.942Z,1.72
2023-03-11T04:29:00.534Z,1.68
2023-03-11T04:30:02.290Z,1.60
2023-03-11T04:31:04.405Z,1.30
2023-03-11T04:32:06.363Z,1.35
2023-03-11T04:33:08.033Z,1.50
2023-03-11T04:34:09.677Z,1.47
2023-03-11T04:35:11.405Z,1.37
2023-03-11T04:36:13.474Z,1.27
2023-03-11T04:37:15.032Z,1.15
2023-03-11T04:38:17.022Z,1.47
2023-03-11T04:39:18.601Z,1.15
2023-03-11T04:40:20.454Z,1.30
2023-03-11T04:41:22.069Z,1.48
2023-03-11T04:42:23.655Z,1.22
2023-03-11T04:43:25.275Z,1.23
2023-03-11T04:44:26.922Z,1.18
2023-03-11T04:45:28.685Z,0.98
2023-03-11T04:46:30.298Z,1.10
2023-03-11T04:47:32.125Z,0.85
2023-03-11T04:48:33.746Z,0.97
2023-03-11T04:49:35.446Z,0.93
2023-03-11T04:50:37.087Z,0.92
2023-03-11T04:51:38.989Z,1.08
2023-03-11T04:52:40.706Z,0.93
2023-03-11T04:53:42.413Z,1.00
2023-03-11T04:54:44.025Z,0.88
2023-03-11T04:55:45.960Z,0.88
2023-03-11T04:56:47.568Z,0.98
2023-03-11T04:57:49.204Z,1.13
2023-03-11T04:58:50.826Z,1.03
2023-03-11T04:59:52.451Z,0.75
2023-03-11T05:00:54.121Z,1.00
2023-03-11T05:01:55.709Z,0.97
2023-03-11T05:02:57.501Z,0.93
2023-03-11T05:03:59.081Z,0.85
2023-03-11T05:05:00.730Z,1.10
2023-03-11T05:06:02.438Z,0.90
2023-03-11T05:07:04.056Z,0.95
2023-03-11T05:08:06.252Z,1.05
2023-03-11T05:09:07.894Z,0.98
2023-03-11T05:10:10.195Z,1.02
2023-03-11T05:11:11.958Z,1.00
2023-03-11T05:12:13.592Z,0.88
2023-03-11T05:13:15.311Z,0.98
2023-03-11T05:14:16.954Z,0.93
2023-03-11T05:15:19.516Z,0.80
2023-03-11T05:16:21.192Z,0.72
2023-03-11T05:17:22.837Z,0.92
2023-03-11T05:18:24.414Z,0.77
2023-03-11T05:19:26.022Z,0.80
2023-03-11T05:20:27.722Z,0.85
2023-03-11T05:21:29.385Z,0.75
2023-03-11T05:22:30.948Z,0.75
2023-03-11T05:23:32.588Z,0.98
2023-03-11T05:24:34.232Z,0.97
2023-03-11T05:25:35.920Z,0.80
2023-03-11T05:26:37.730Z,1.00
2023-03-11T05:27:39.521Z,1.08
2023-03-11T05:28:41.246Z,0.80
2023-03-11T05:29:42.820Z,0.80
2023-03-11T05:30:44.437Z,0.87
2023-03-11T05:31:46.587Z,0.93
2023-03-11T05:32:48.546Z,0.95
2023-03-11T05:33:50.109Z,0.97
2023-03-11T05:34:51.694Z,0.97
2023-03-11T05:35:53.411Z,1.08
2023-03-11T05:36:55.116Z,1.08
2023-03-11T05:37:56.685Z,0.93
2023-03-11T05:38:58.363Z,0.93
2023-03-11T05:39:59.975Z,1.05
2023-03-11T05:41:01.576Z,0.97
2023-03-11T05:42:04.525Z,0.92
2023-03-11T05:43:06.179Z,0.87
2023-03-11T05:44:07.873Z,0.93
2023-03-11T05:45:10.694Z,0.72
2023-03-11T05:46:12.749Z,0.73
2023-03-11T05:47:16.163Z,0.87
2023-03-11T05:48:17.841Z,0.88
2023-03-11T05:49:19.407Z,0.85
2023-03-11T05:50:20.995Z,0.97
2023-03-11T05:51:22.609Z,0.87
2023-03-11T05:52:24.204Z,0.75
2023-03-11T05:53:25.752Z,1.00
2023-03-11T05:54:27.285Z,1.08
2023-03-11T05:55:28.872Z,0.77
2023-03-11T05:56:30.478Z,1.02
2023-03-11T05:57:32.165Z,1.40
2023-03-11T05:58:33.812Z,1.07
2023-03-11T05:59:35.513Z,1.20
2023-03-11T06:00:37.232Z,1.22
2023-03-11T06:01:38.853Z,1.15
2023-03-11T06:02:41.129Z,1.22
2023-03-11T06:03:43.267Z,1.20
2023-03-11T06:04:47.572Z,1.25
2023-03-11T06:05:50.554Z,1.35
2023-03-11T06:06:52.099Z,1.60
2023-03-11T06:07:54.053Z,2.32
2023-03-11T06:08:55.941Z,1.43
2023-03-11T06:09:57.544Z,1.08
2023-03-11T06:11:03.938Z,1.35
2023-03-11T06:12:05.974Z,1.32
2023-03-11T06:13:07.731Z,1.23
2023-03-11T06:14:14.805Z,1.45
2023-03-11T06:15:16.506Z,1.40
2023-03-11T06:16:18.186Z,1.25
2023-03-11T06:17:19.866Z,1.37
2023-03-11T06:18:21.638Z,1.30
2023-03-11T06:19:23.294Z,1.45
2023-03-11T06:20:24.972Z,1.22
2023-03-11T06:21:26.895Z,1.55
2023-03-11T06:22:28.537Z,1.52
2023-03-11T06:23:31.030Z,1.87
2023-03-11T06:24:32.706Z,1.87
2023-03-11T06:25:34.249Z,1.45
2023-03-11T06:26:35.875Z,1.62
2023-03-11T06:27:37.471Z,1.67
2023-03-11T06:28:39.344Z,1.67
2023-03-11T06:29:40.917Z,1.42
2023-03-11T06:30:42.523Z,1.85
2023-03-11T06:31:44.364Z,2.13
2023-03-11T06:32:47.238Z,2.25
2023-03-11T06:33:49.115Z,1.55
2023-03-11T06:34:51.945Z,1.75
2023-03-11T06:36:01.082Z,2.03
2023-03-11T06:37:02.720Z,2.67
2023-03-11T06:38:04.357Z,2.85
2023-03-11T06:39:05.965Z,2.37
2023-03-11T06:40:09.583Z,3.50
2023-03-11T06:41:11.136Z,4.38
2023-03-11T06:42:12.884Z,2.92
2023-03-11T06:43:14.670Z,2.15
2023-03-11T06:44:16.374Z,2.05
2023-03-11T06:45:20.546Z,1.90
2023-03-11T06:46:23.371Z,1.85
2023-03-11T06:47:24.955Z,2.10
2023-03-11T06:48:27.056Z,3.42
2023-03-11T06:49:28.731Z,2.93
2023-03-11T06:50:30.349Z,2.67
2023-03-11T06:51:32.122Z,2.13
2023-03-11T06:52:33.716Z,1.92
2023-03-11T06:53:35.510Z,2.15
2023-03-11T06:54:37.136Z,2.13
2023-03-11T06:55:38.726Z,1.88
2023-03-11T06:56:40.299Z,1.97
2023-03-11T06:57:41.881Z,1.83
2023-03-11T06:58:44.482Z,1.85
2023-03-11T06:59:46.086Z,1.92
2023-03-11T07:00:47.655Z,2.35
2023-03-11T07:01:49.328Z,2.37
2023-03-11T07:02:51.021Z,2.25
2023-03-11T07:03:53.032Z,2.35
2023-03-11T07:04:54.604Z,2.53
2023-03-11T07:05:56.365Z,2.15
2023-03-11T07:06:58.148Z,2.07
2023-03-11T07:07:59.763Z,1.95
2023-03-11T07:09:01.482Z,2.17
2023-03-11T07:10:03.448Z,1.97
2023-03-11T07:11:08.969Z,2.28
2023-03-11T07:12:10.580Z,2.70
2023-03-11T07:13:12.832Z,2.38
2023-03-11T07:14:16.870Z,2.22
2023-03-11T07:15:18.873Z,2.37
2023-03-11T07:16:23.815Z,2.68
2023-03-11T07:17:26.523Z,2.43
2023-03-11T07:18:28.656Z,2.37
2023-03-11T07:19:30.297Z,2.42
2023-03-11T07:20:31.917Z,2.43
2023-03-11T07:21:33.596Z,2.33
2023-03-11T07:22:35.216Z,2.67
2023-03-11T07:23:36.907Z,2.62
2023-03-11T07:24:38.551Z,2.35
2023-03-11T07:25:46.964Z,2.37
2023-03-11T07:26:48.533Z,2.67
2023-03-11T07:27:50.212Z,3.05
2023-03-11T07:28:52.011Z,2.82
2023-03-11T07:29:53.629Z,2.42
2023-03-11T07:30:55.454Z,2.42
2023-03-11T07:31:57.342Z,2.75
2023-03-11T07:32:59.033Z,2.58
2023-03-11T07:34:03.174Z,2.55
2023-03-11T07:35:05.129Z,3.25
2023-03-11T07:36:13.315Z,2.75
2023-03-11T07:37:15.540Z,2.45
2023-03-11T07:38:17.985Z,2.22
2023-03-11T07:39:20.140Z,2.50
2023-03-11T07:40:21.800Z,2.63
2023-03-11T07:41:23.374Z,2.40
2023-03-11T07:42:25.017Z,2.42
2023-03-11T07:43:26.910Z,2.53
2023-03-11T07:44:28.686Z,2.75
2023-03-11T07:45:30.321Z,2.57
2023-03-11T07:46:32.897Z,2.07
2023-03-11T07:47:34.563Z,2.18
2023-03-11T07:48:37.725Z,2.18
2023-03-11T07:49:39.435Z,2.10
2023-03-11T07:50:41.068Z,2.12
2023-03-11T07:51:42.758Z,1.92
2023-03-11T07:52:44.340Z,1.93
2023-03-11T07:53:46.718Z,2.18
2023-03-11T07:54:48.333Z,2.18
2023-03-11T07:55:55.806Z,2.45
2023-03-11T07:56:57.380Z,2.28
2023-03-11T07:57:59.061Z,2.17
2023-03-11T07:59:03.158Z,2.00
2023-03-11T08:00:04.932Z,2.00
2023-03-11T08:01:18.825Z,2.12
2023-03-11T08:02:20.475Z,2.32
2023-03-11T08:03:22.587Z,2.22
2023-03-11T08:04:24.217Z,2.03
2023-03-11T08:05:25.941Z,2.13
2023-03-11T08:06:34.547Z,2.25
2023-03-11T08:07:36.326Z,2.23
2023-03-11T08:08:38.866Z,2.12
2023-03-11T08:09:40.453Z,2.43
2023-03-11T08:10:42.268Z,2.23
2023-03-11T08:11:44.030Z,2.55
2023-03-11T08:12:45.596Z,2.40
2023-03-11T08:13:48.124Z,2.42
2023-03-11T08:14:49.795Z,2.80
2023-03-11T08:15:51.497Z,2.77
2023-03-11T08:16:53.293Z,2.52
2023-03-11T08:17:54.962Z,2.68
2023-03-11T08:18:56.582Z,2.75
2023-03-11T08:19:58.433Z,2.50
2023-03-11T08:21:05.199Z,2.58
2023-03-11T08:22:06.862Z,2.55
2023-03-11T08:23:08.427Z,2.57
2023-03-11T08:24:12.620Z,2.40
2023-03-11T08:25:14.331Z,2.23
2023-03-11T08:26:19.334Z,2.27
2023-03-11T08:27:20.982Z,2.20
2023-03-11T08:28:22.682Z,2.20
2023-03-11T08:29:24.864Z,2.13
2023-03-11T08:30:26.651Z,2.35
2023-03-11T08:31:32.359Z,2.20
2023-03-11T08:32:34.120Z,2.37
2023-03-11T08:33:35.706Z,2.07
2023-03-11T08:34:38.153Z,2.17
2023-03-11T08:35:40.336Z,2.28
2023-03-11T08:36:42.267Z,2.13
2023-03-11T08:37:43.864Z,2.28
2023-03-11T08:38:45.672Z,2.42
2023-03-11T08:39:47.346Z,2.35
2023-03-11T08:40:49.012Z,2.50
2023-03-11T08:41:50.613Z,2.27
2023-03-11T08:42:52.221Z,2.33
2023-03-11T08:43:54.047Z,2.25
2023-03-11T08:44:55.789Z,1.98
2023-03-11T08:46:00.298Z,2.25
2023-03-11T08:47:01.971Z,1.88
2023-03-11T08:48:03.708Z,2.18
2023-03-11T08:49:05.691Z,2.00
2023-03-11T08:50:13.870Z,1.83
2023-03-11T08:51:16.162Z,3.55
2023-03-11T08:52:17.742Z,4.00
2023-03-11T08:53:19.314Z,5.35
2023-03-11T08:54:21.011Z,4.27
2023-03-11T08:55:22.647Z,3.02
2023-03-11T08:56:24.300Z,2.65
2023-03-11T08:57:25.934Z,2.45
2023-03-11T08:58:27.527Z,2.57
2023-03-11T08:59:29.942Z,2.35
2023-03-11T09:00:31.596Z,2.25
2023-03-11T09:01:33.204Z,2.23
2023-03-11T09:02:35.048Z,2.48
2023-03-11T09:03:36.885Z,2.20
2023-03-11T09:04:38.502Z,2.13
2023-03-11T09:05:40.632Z,2.07
2023-03-11T09:06:44.290Z,2.13
2023-03-11T09:07:45.886Z,2.27
2023-03-11T09:08:49.316Z,2.17
2023-03-11T09:09:50.968Z,2.30
2023-03-11T09:10:52.591Z,2.22
2023-03-11T09:11:54.228Z,2.38
2023-03-11T09:12:55.954Z,2.23
2023-03-11T09:13:57.642Z,1.83
2023-03-11T09:14:59.428Z,2.28
2023-03-11T09:16:01.087Z,2.12
2023-03-11T09:17:03.226Z,2.02
2023-03-11T09:18:04.834Z,1.88
2023-03-11T09:19:06.480Z,2.17
2023-03-11T09:20:08.640Z,2.02
2023-03-11T09:21:10.789Z,1.87
2023-03-11T09:22:13.071Z,2.02
2023-03-11T09:23:16.870Z,2.00
2023-03-11T09:24:18.569Z,2.25
2023-03-11T09:25:20.181Z,1.95
2023-03-11T09:26:21.789Z,1.82
2023-03-11T09:27:23.517Z,1.92
2023-03-11T09:28:25.302Z,1.82
2023-03-11T09:29:27.116Z,2.03
2023-03-11T09:30:28.825Z,2.05
2023-03-11T09:31:30.462Z,2.33
2023-03-11T09:32:32.148Z,1.98
2023-03-11T09:33:39.357Z,1.93
2023-03-11T09:34:41.959Z,1.72
2023-03-11T09:35:43.558Z,2.05
2023-03-11T09:36:46.664Z,1.90
2023-03-11T09:37:48.293Z,1.78
2023-03-11T09:38:49.921Z,1.67
2023-03-11T09:39:51.513Z,1.47
2023-03-11T09:41:14.280Z,1.73
2023-03-11T09:42:21.842Z,1.95
2023-03-11T09:43:34.903Z,1.82
2023-03-11T09:44:52.022Z,1.90
2023-03-11T09:46:31.234Z,1.52
2023-03-11T09:47:40.146Z,1.55
2023-03-11T09:48:53.968Z,1.92
2023-03-11T09:50:12.156Z,1.85
2023-03-11T09:51:27.223Z,1.98
2023-03-11T09:52:58.879Z,1.73
2023-03-11T09:54:05.406Z,1.78
2023-03-11T09:55:24.445Z,1.63
2023-03-11T09:56:26.301Z,1.57
2023-03-11T09:57:36.853Z,1.53
2023-03-11T09:58:49.297Z,1.27
2023-03-11T09:59:51.393Z,1.75
2023-03-11T10:00:53.387Z,1.95
2023-03-11T10:01:55.183Z,1.83
2023-03-11T10:02:56.905Z,1.58
2023-03-11T10:04:08.908Z,1.77
2023-03-11T10:05:27.334Z,1.70
2023-03-11T10:06:30.691Z,1.75
2023-03-11T10:07:41.947Z,1.78
2023-03-11T10:08:49.017Z,1.70
2023-03-11T10:10:00.229Z,1.65
2023-03-11T10:11:12.966Z,1.43
2023-03-11T10:12:27.097Z,1.60
2023-03-11T10:13:45.057Z,1.73
2023-03-11T10:14:59.997Z,1.67
2023-03-11T10:16:24.800Z,1.57
2023-03-11T10:17:54.126Z,1.42
2023-03-11T10:19:17.441Z,1.40
2023-03-11T10:20:19.084Z,1.48
2023-03-11T10:22:00.166Z,1.67
2023-03-11T10:23:16.878Z,1.68
2023-03-11T10:24:57.579Z,1.45
2023-03-11T10:26:13.075Z,1.45
2023-03-11T10:27:21.745Z,1.60
2023-03-11T10:28:37.244Z,1.38
2023-03-11T10:30:06.190Z,1.58
2023-03-11T10:31:23.741Z,1.62
2023-03-11T10:32:42.256Z,1.53
2023-03-11T10:33:53.327Z,1.38
2023-03-11T10:35:23.270Z,1.45
2023-03-11T10:36:39.269Z,1.50
2023-03-11T10:37:50.030Z,1.35
2023-03-11T10:38:57.394Z,1.25
2023-03-11T10:40:15.372Z,1.50
2023-03-11T10:41:32.126Z,1.72
2023-03-11T10:42:35.394Z,1.65
2023-03-11T10:44:04.140Z,1.53
2023-03-11T10:45:13.643Z,1.32
2023-03-11T10:46:26.521Z,1.45
2023-03-11T10:47:29.710Z,1.32
2023-03-11T10:48:31.312Z,1.35
2023-03-11T10:49:33.437Z,1.32
2023-03-11T10:50:36.479Z,1.37
2023-03-11T10:51:38.771Z,1.68
2023-03-11T10:53:14.854Z,1.68
2023-03-11T10:54:35.693Z,1.62
2023-03-11T10:55:48.088Z,1.57
2023-03-11T10:56:55.412Z,1.47
2023-03-11T10:58:12.027Z,1.28
2023-03-11T10:59:33.504Z,1.38
2023-03-11T11:00:35.084Z,1.33
2023-03-11T11:01:36.731Z,1.23
2023-03-11T11:02:55.927Z,1.33
2023-03-11T11:04:00.379Z,1.47
2023-03-11T11:05:20.290Z,1.35
2023-03-11T11:06:29.749Z,1.13
2023-03-11T11:07:38.113Z,1.47
2023-03-11T11:08:39.750Z,1.50
2023-03-11T11:09:41.625Z,1.50
2023-03-11T11:11:00.153Z,1.57
2023-03-11T11:12:14.685Z,1.33
2023-03-11T11:13:22.473Z,1.18
2023-03-11T11:14:24.046Z,1.45
2023-03-11T11:15:35.868Z,1.30
2023-03-11T11:16:38.085Z,1.53
2023-03-11T11:17:39.696Z,1.52
2023-03-11T11:18:49.432Z,1.57
2023-03-11T11:19:53.052Z,1.62
2023-03-11T11:21:02.692Z,1.40
2023-03-11T11:22:05.065Z,1.53
2023-03-11T11:23:06.738Z,1.53
2023-03-11T11:24:28.205Z,1.58
2023-03-11T11:25:34.060Z,1.77
2023-03-11T11:26:35.731Z,1.65
2023-03-11T11:27:37.346Z,1.48
2023-03-11T11:28:38.959Z,1.28
2023-03-11T11:29:41.046Z,1.45
2023-03-11T11:30:56.564Z,1.53
2023-03-11T11:32:30.888Z,1.28
2023-03-11T11:33:40.254Z,1.50
2023-03-11T11:34:42.003Z,1.48
2023-03-11T11:35:53.426Z,1.30
2023-03-11T11:36:58.397Z,1.10
2023-03-11T11:38:03.031Z,1.23
2023-03-11T11:39:19.257Z,1.37
2023-03-11T11:40:30.575Z,1.15
2023-03-11T11:41:35.443Z,1.35
2023-03-11T11:42:39.989Z,1.57
2023-03-11T11:44:10.966Z,1.15
2023-03-11T11:45:27.822Z,1.43
2023-03-11T11:46:29.494Z,1.28
2023-03-11T11:47:38.044Z,1.18
2023-03-11T11:49:01.338Z,1.25
2023-03-11T11:50:11.303Z,1.43
2023-03-11T11:51:55.330Z,1.43
2023-03-11T11:53:11.141Z,1.35
2023-03-11T11:54:44.832Z,1.32
2023-03-11T11:55:51.490Z,1.47
2023-03-11T11:56:55.523Z,1.12
2023-03-11T11:57:57.633Z,1.05
2023-03-11T11:58:59.408Z,1.32
2023-03-11T12:00:02.462Z,1.12
2023-03-11T12:01:35.345Z,1.23
2023-03-11T12:03:05.399Z,1.08
2023-03-11T12:04:33.186Z,1.12
2023-03-11T12:06:01.535Z,1.48
2023-03-11T12:07:21.432Z,1.43
2023-03-11T12:08:53.774Z,1.25
2023-03-11T12:10:23.390Z,1.27
2023-03-11T12:11:34.114Z,1.40
2023-03-11T12:13:08.985Z,1.38
2023-03-11T12:14:36.764Z,1.35
2023-03-11T12:16:02.003Z,1.47
2023-03-11T12:17:05.123Z,1.58
2023-03-11T12:18:17.718Z,1.35
2023-03-11T12:19:42.625Z,1.52
2023-03-11T12:20:55.375Z,1.62
2023-03-11T12:22:05.692Z,2.17
2023-03-11T12:23:45.795Z,1.72
2023-03-11T12:24:47.316Z,1.85
2023-03-11T12:26:04.909Z,1.68
2023-03-11T12:27:17.650Z,1.42
2023-03-11T12:28:31.449Z,1.57
2023-03-11T12:29:44.114Z,1.47
2023-03-11T12:30:54.719Z,1.30
2023-03-11T12:32:00.295Z,1.42
2023-03-11T12:33:11.248Z,1.38
2023-03-11T12:34:16.136Z,1.55
2023-03-11T12:35:30.815Z,1.28
2023-03-11T12:36:39.587Z,1.57
2023-03-11T12:37:41.195Z,1.47
2023-03-11T12:38:48.289Z,1.42
2023-03-11T12:39:49.909Z,1.27
2023-03-11T12:41:02.894Z,1.13
2023-03-11T12:42:22.150Z,1.28
2023-03-11T12:43:24.930Z,1.05
2023-03-11T12:44:29.402Z,1.10
2023-03-11T12:45:51.282Z,1.33
2023-03-11T12:46:58.881Z,1.22
2023-03-11T12:48:32.281Z,1.22
2023-03-11T12:49:36.754Z,1.03
2023-03-11T12:50:42.275Z,1.42
2023-03-11T12:52:12.704Z,1.10
2023-03-11T12:53:17.730Z,1.20
2023-03-11T12:54:34.211Z,1.20
2023-03-11T12:55:38.944Z,1.12
2023-03-11T12:56:55.159Z,1.15
2023-03-11T12:58:23.923Z,1.20
2023-03-11T13:00:02.819Z,1.23
2023-03-11T13:01:23.014Z,1.18
2023-03-11T13:02:45.729Z,1.10
2023-03-11T13:04:01.769Z,1.20
2023-03-11T13:05:26.155Z,1.50
2023-03-11T13:06:49.371Z,1.23
2023-03-11T13:08:10.589Z,1.33
2023-03-11T13:09:16.831Z,1.33
2023-03-11T13:10:34.707Z,1.07
2023-03-11T13:11:42.581Z,1.05
2023-03-11T13:12:47.086Z,1.15
2023-03-11T13:13:49.374Z,1.08
2023-03-11T13:15:16.725Z,1.15
2023-03-11T13:16:18.277Z,0.97
2023-03-11T13:17:30.587Z,1.10
2023-03-11T13:18:32.903Z,1.07
2023-03-11T13:19:36.878Z,1.25
2023-03-11T13:20:41.781Z,1.02
2023-03-11T13:21:43.369Z,1.10
2023-03-11T13:23:23.234Z,1.27
2023-03-11T13:24:24.757Z,1.30
2023-03-11T13:25:32.502Z,1.08
2023-03-11T13:26:43.766Z,1.22
2023-03-11T13:27:51.656Z,1.12
2023-03-11T13:29:30.371Z,1.05
2023-03-11T13:30:41.284Z,1.12
2023-03-11T13:32:12.726Z,0.97
2023-03-11T13:33:37.817Z,1.15
2023-03-11T13:34:47.056Z,1.25
2023-03-11T13:36:03.822Z,0.97
2023-03-11T13:37:17.461Z,1.20
2023-03-11T13:38:31.209Z,0.98
2023-03-11T13:39:53.219Z,1.05
2023-03-11T13:40:55.162Z,1.15
2023-03-11T13:41:57.009Z,1.35
2023-03-11T13:43:04.148Z,1.25
2023-03-11T13:44:19.674Z,1.03
2023-03-11T13:45:31.513Z,1.10
2023-03-11T13:46:42.902Z,1.23
2023-03-11T13:47:48.143Z,1.52
2023-03-11T13:48:55.200Z,1.38
2023-03-11T13:50:08.957Z,1.43
2023-03-11T13:51:16.461Z,0.82
2023-03-11T13:52:32.309Z,1.05
2023-03-11T13:53:47.301Z,0.68
2023-03-11T13:54:58.513Z,0.90
2023-03-11T13:56:00.292Z,0.98
2023-03-11T13:57:03.315Z,1.40
2023-03-11T13:58:20.371Z,1.42
2023-03-11T13:59:28.081Z,1.25
2023-03-11T14:00:31.495Z,0.82
2023-03-11T14:01:33.230Z,0.92
2023-03-11T14:02:35.898Z,0.88
2023-03-11T14:03:43.458Z,0.87
2023-03-11T14:04:52.992Z,1.12
2023-03-11T14:06:08.926Z,0.97
2023-03-11T14:07:31.015Z,1.03
2023-03-11T14:08:37.732Z,1.15
2023-03-11T14:09:39.471Z,1.13
2023-03-11T14:10:51.348Z,1.07
2023-03-11T14:11:54.984Z,1.12
2023-03-11T14:13:18.428Z,0.88
2023-03-11T14:14:45.453Z,0.80
2023-03-11T14:16:07.860Z,1.13
2023-03-11T14:17:16.691Z,1.82
2023-03-11T14:18:26.364Z,1.85
2023-03-11T14:19:27.994Z,1.27
2023-03-11T14:20:29.787Z,1.20
2023-03-11T14:21:31.562Z,0.95
2023-03-11T14:22:34.115Z,1.00
2023-03-11T14:23:44.592Z,1.12
2023-03-11T14:24:48.260Z,1.25
2023-03-11T14:25:58.839Z,1.08
2023-03-11T14:27:04.080Z,0.95
2023-03-11T14:28:05.858Z,1.57
2023-03-11T14:29:11.683Z,1.37
2023-03-11T14:30:24.290Z,1.15
2023-03-11T14:31:37.387Z,1.18